sensor_id;sensor_type;location;lat;lon;timestamp;P1;durP1;ratioP1;P2;durP2;ratioP2
28577;SDS011;15769;52.248;15.818;2022-10-28T00:00:31;33.22;;;24.40;;
28577;SDS011;15769;52.248;15.818;2022-10-28T00:05:53;36.15;;;24.60;;
28577;SDS011;15769;52.248;15.818;2022-10-28T00:11:06;37.03;;;24.42;;
28577;SDS011;15769;52.248;15.818;2022-10-28T00:16:15;30.10;;;22.83;;
28577;SDS011;15769;52.248;15.818;2022-10-28T00:21:26;32.00;;;24.88;;
28577;SDS011;15769;52.248;15.818;2022-10-28T00:26:33;35.80;;;26.63;;
28577;SDS011;15769;52.248;15.818;2022-10-28T00:31:39;34.75;;;25.40;;
28577;SDS011;15769;52.248;15.818;2022-10-28T00:36:42;32.47;;;24.70;;
28577;SDS011;15769;52.248;15.818;2022-10-28T00:41:48;37.58;;;25.88;;
28577;SDS011;15769;52.248;15.818;2022-10-28T00:46:52;37.60;;;27.02;;
28577;SDS011;15769;52.248;15.818;2022-10-28T00:51:55;37.15;;;25.45;;
28577;SDS011;15769;52.248;15.818;2022-10-28T00:57:07;39.35;;;26.90;;
28577;SDS011;15769;52.248;15.818;2022-10-28T01:02:13;37.90;;;26.85;;
28577;SDS011;15769;52.248;15.818;2022-10-28T01:07:16;42.88;;;28.02;;
28577;SDS011;15769;52.248;15.818;2022-10-28T01:12:24;39.17;;;26.67;;
28577;SDS011;15769;52.248;15.818;2022-10-28T01:39:30;39.08;;;25.77;;
28577;SDS011;15769;52.248;15.818;2022-10-28T01:45:09;34.30;;;24.08;;
28577;SDS011;15769;52.248;15.818;2022-10-28T01:50:38;36.30;;;25.20;;
28577;SDS011;15769;52.248;15.818;2022-10-28T01:55:45;33.63;;;24.05;;
28577;SDS011;15769;52.248;15.818;2022-10-28T02:00:48;32.03;;;23.05;;
28577;SDS011;15769;52.248;15.818;2022-10-28T02:05:51;29.97;;;23.33;;
28577;SDS011;15769;52.248;15.818;2022-10-28T02:11:23;28.08;;;22.17;;
28577;SDS011;15769;52.248;15.818;2022-10-28T02:16:46;31.65;;;23.67;;
28577;SDS011;15769;52.248;15.818;2022-10-28T02:22:19;27.15;;;22.27;;
28577;SDS011;15769;52.248;15.818;2022-10-28T02:32:52;36.10;;;25.35;;
28577;SDS011;15769;52.248;15.818;2022-10-28T02:37:59;31.73;;;23.02;;
28577;SDS011;15769;52.248;15.818;2022-10-28T02:43:04;31.77;;;23.67;;
28577;SDS011;15769;52.248;15.818;2022-10-28T02:48:10;32.78;;;23.45;;
28577;SDS011;15769;52.248;15.818;2022-10-28T02:53:21;36.03;;;23.77;;
28577;SDS011;15769;52.248;15.818;2022-10-28T02:58:36;36.70;;;24.88;;
28577;SDS011;15769;52.248;15.818;2022-10-28T03:03:40;31.83;;;21.50;;
28577;SDS011;15769;52.248;15.818;2022-10-28T03:08:42;33.58;;;23.30;;
28577;SDS011;15769;52.248;15.818;2022-10-28T03:13:47;26.27;;;19.30;;
28577;SDS011;15769;52.248;15.818;2022-10-28T03:18:51;31.95;;;22.77;;
28577;SDS011;15769;52.248;15.818;2022-10-28T03:23:53;32.10;;;20.50;;
28577;SDS011;15769;52.248;15.818;2022-10-28T03:28:59;35.63;;;24.05;;
28577;SDS011;15769;52.248;15.818;2022-10-28T03:34:02;38.13;;;25.23;;
28577;SDS011;15769;52.248;15.818;2022-10-28T03:39:04;36.40;;;25.23;;
28577;SDS011;15769;52.248;15.818;2022-10-28T03:44:06;35.30;;;23.40;;
28577;SDS011;15769;52.248;15.818;2022-10-28T03:49:11;36.53;;;24.50;;
28577;SDS011;15769;52.248;15.818;2022-10-28T03:54:19;32.63;;;24.35;;
28577;SDS011;15769;52.248;15.818;2022-10-28T03:59:22;33.22;;;23.90;;
28577;SDS011;15769;52.248;15.818;2022-10-28T04:04:25;34.25;;;23.83;;
28577;SDS011;15769;52.248;15.818;2022-10-28T04:09:31;35.45;;;24.00;;
28577;SDS011;15769;52.248;15.818;2022-10-28T04:14:35;38.55;;;23.70;;
28577;SDS011;15769;52.248;15.818;2022-10-28T04:19:37;36.70;;;23.95;;
28577;SDS011;15769;52.248;15.818;2022-10-28T04:24:40;33.42;;;23.20;;
28577;SDS011;15769;52.248;15.818;2022-10-28T04:29:42;35.53;;;24.08;;
28577;SDS011;15769;52.248;15.818;2022-10-28T04:34:44;36.38;;;24.05;;
28577;SDS011;15769;52.248;15.818;2022-10-28T04:39:48;34.53;;;23.67;;
28577;SDS011;15769;52.248;15.818;2022-10-28T04:44:51;38.83;;;24.73;;
28577;SDS011;15769;52.248;15.818;2022-10-28T04:49:56;36.83;;;24.77;;
28577;SDS011;15769;52.248;15.818;2022-10-28T04:54:58;38.20;;;25.25;;
28577;SDS011;15769;52.248;15.818;2022-10-28T05:00:00;36.55;;;22.52;;
28577;SDS011;15769;52.248;15.818;2022-10-28T05:05:03;32.88;;;22.98;;
28577;SDS011;15769;52.248;15.818;2022-10-28T05:10:27;36.20;;;23.73;;
28577;SDS011;15769;52.248;15.818;2022-10-28T05:15:29;35.47;;;22.45;;
28577;SDS011;15769;52.248;15.818;2022-10-28T05:20:32;36.20;;;22.90;;
28577;SDS011;15769;52.248;15.818;2022-10-28T05:25:49;35.50;;;22.35;;
28577;SDS011;15769;52.248;15.818;2022-10-28T05:30:52;40.03;;;23.98;;
28577;SDS011;15769;52.248;15.818;2022-10-28T05:35:59;28.27;;;17.48;;
28577;SDS011;15769;52.248;15.818;2022-10-28T05:41:02;29.33;;;18.77;;
28577;SDS011;15769;52.248;15.818;2022-10-28T05:46:19;27.80;;;18.65;;
28577;SDS011;15769;52.248;15.818;2022-10-28T05:56:45;32.95;;;21.55;;
28577;SDS011;15769;52.248;15.818;2022-10-28T06:01:48;34.83;;;21.50;;
28577;SDS011;15769;52.248;15.818;2022-10-28T06:06:53;36.30;;;23.57;;
28577;SDS011;15769;52.248;15.818;2022-10-28T06:12:21;35.53;;;23.20;;
28577;SDS011;15769;52.248;15.818;2022-10-28T06:17:25;34.10;;;21.00;;
28577;SDS011;15769;52.248;15.818;2022-10-28T06:22:28;37.45;;;23.15;;
28577;SDS011;15769;52.248;15.818;2022-10-28T06:27:44;38.55;;;24.15;;
28577;SDS011;15769;52.248;15.818;2022-10-28T06:32:50;36.95;;;24.73;;
28577;SDS011;15769;52.248;15.818;2022-10-28T06:37:54;36.22;;;22.92;;
28577;SDS011;15769;52.248;15.818;2022-10-28T06:43:05;33.20;;;20.80;;
28577;SDS011;15769;52.248;15.818;2022-10-28T06:48:23;30.60;;;20.52;;
28577;SDS011;15769;52.248;15.818;2022-10-28T06:53:28;26.40;;;18.95;;
28577;SDS011;15769;52.248;15.818;2022-10-28T06:58:51;26.20;;;18.30;;
28577;SDS011;15769;52.248;15.818;2022-10-28T07:04:03;22.00;;;16.73;;
28577;SDS011;15769;52.248;15.818;2022-10-28T07:09:08;22.52;;;16.88;;
28577;SDS011;15769;52.248;15.818;2022-10-28T07:14:12;21.98;;;15.43;;
28577;SDS011;15769;52.248;15.818;2022-10-28T07:19:23;22.15;;;16.60;;
28577;SDS011;15769;52.248;15.818;2022-10-28T07:24:27;30.10;;;16.40;;
28577;SDS011;15769;52.248;15.818;2022-10-28T07:30:15;19.88;;;13.80;;
28577;SDS011;15769;52.248;15.818;2022-10-28T07:35:27;23.70;;;14.65;;
28577;SDS011;15769;52.248;15.818;2022-10-28T07:40:31;20.80;;;14.05;;
28577;SDS011;15769;52.248;15.818;2022-10-28T07:45:34;17.25;;;12.43;;
28577;SDS011;15769;52.248;15.818;2022-10-28T07:50:38;18.73;;;13.68;;
28577;SDS011;15769;52.248;15.818;2022-10-28T07:56:25;21.92;;;13.50;;
28577;SDS011;15769;52.248;15.818;2022-10-28T08:02:47;18.77;;;13.52;;
28577;SDS011;15769;52.248;15.818;2022-10-28T08:08:14;19.85;;;12.63;;
28577;SDS011;15769;52.248;15.818;2022-10-28T08:13:45;17.00;;;12.75;;
28577;SDS011;15769;52.248;15.818;2022-10-28T08:19:43;16.48;;;12.52;;
28577;SDS011;15769;52.248;15.818;2022-10-28T08:24:46;20.75;;;13.20;;
28577;SDS011;15769;52.248;15.818;2022-10-28T08:29:50;16.05;;;10.70;;
28577;SDS011;15769;52.248;15.818;2022-10-28T08:34:54;19.30;;;10.82;;
28577;SDS011;15769;52.248;15.818;2022-10-28T08:39:57;23.30;;;11.93;;
28577;SDS011;15769;52.248;15.818;2022-10-28T08:50:19;18.38;;;11.13;;
28577;SDS011;15769;52.248;15.818;2022-10-28T08:55:24;16.75;;;10.43;;
28577;SDS011;15769;52.248;15.818;2022-10-28T09:00:36;13.55;;;10.52;;
28577;SDS011;15769;52.248;15.818;2022-10-28T09:05:43;14.65;;;10.65;;
28577;SDS011;15769;52.248;15.818;2022-10-28T09:11:12;22.55;;;11.45;;
28577;SDS011;15769;52.248;15.818;2022-10-28T09:21:49;16.43;;;11.83;;
28577;SDS011;15769;52.248;15.818;2022-10-28T09:32:42;13.38;;;10.20;;
28577;SDS011;15769;52.248;15.818;2022-10-28T09:37:51;13.52;;;10.05;;
28577;SDS011;15769;52.248;15.818;2022-10-28T09:48:13;15.02;;;9.98;;
28577;SDS011;15769;52.248;15.818;2022-10-28T09:58:49;15.48;;;10.95;;
28577;SDS011;15769;52.248;15.818;2022-10-28T10:03:51;18.30;;;11.88;;
28577;SDS011;15769;52.248;15.818;2022-10-28T10:08:55;17.05;;;10.65;;
28577;SDS011;15769;52.248;15.818;2022-10-28T10:13:57;15.85;;;10.27;;
28577;SDS011;15769;52.248;15.818;2022-10-28T10:19:04;17.35;;;10.48;;
28577;SDS011;15769;52.248;15.818;2022-10-28T10:29:30;14.70;;;10.38;;
28577;SDS011;15769;52.248;15.818;2022-10-28T10:34:36;26.20;;;18.00;;
28577;SDS011;15769;52.248;15.818;2022-10-28T10:39:39;48.73;;;36.27;;
28577;SDS011;15769;52.248;15.818;2022-10-28T10:44:41;25.45;;;16.88;;
28577;SDS011;15769;52.248;15.818;2022-10-28T10:49:44;18.93;;;11.43;;
28577;SDS011;15769;52.248;15.818;2022-10-28T10:54:56;12.40;;;9.03;;
28577;SDS011;15769;52.248;15.818;2022-10-28T10:59:59;23.20;;;13.75;;
28577;SDS011;15769;52.248;15.818;2022-10-28T11:05:02;21.83;;;12.80;;
28577;SDS011;15769;52.248;15.818;2022-10-28T11:10:23;18.65;;;10.13;;
28577;SDS011;15769;52.248;15.818;2022-10-28T11:15:28;16.35;;;10.68;;
28577;SDS011;15769;52.248;15.818;2022-10-28T11:25:45;18.95;;;9.20;;
28577;SDS011;15769;52.248;15.818;2022-10-28T11:41:44;13.48;;;8.90;;
28577;SDS011;15769;52.248;15.818;2022-10-28T11:47:01;13.48;;;9.07;;
28577;SDS011;15769;52.248;15.818;2022-10-28T11:52:24;14.93;;;9.98;;
28577;SDS011;15769;52.248;15.818;2022-10-28T12:03:15;11.75;;;8.23;;
28577;SDS011;15769;52.248;15.818;2022-10-28T12:19:26;9.98;;;6.15;;
28577;SDS011;15769;52.248;15.818;2022-10-28T12:24:33;7.72;;;6.53;;
28577;SDS011;15769;52.248;15.818;2022-10-28T12:29:37;56.97;;;44.67;;
28577;SDS011;15769;52.248;15.818;2022-10-28T12:34:47;72.15;;;50.72;;
28577;SDS011;15769;52.248;15.818;2022-10-28T12:39:59;33.25;;;25.25;;
28577;SDS011;15769;52.248;15.818;2022-10-28T12:45:12;12.27;;;9.95;;
28577;SDS011;15769;52.248;15.818;2022-10-28T12:51:00;19.63;;;13.88;;
28577;SDS011;15769;52.248;15.818;2022-10-28T12:55:47;44.55;;;28.13;;
28577;SDS011;15769;52.248;15.818;2022-10-28T13:00:56;26.00;;;19.58;;
28577;SDS011;15769;52.248;15.818;2022-10-28T13:16:43;21.35;;;18.05;;
28577;SDS011;15769;52.248;15.818;2022-10-28T13:27:46;14.02;;;10.25;;
28577;SDS011;15769;52.248;15.818;2022-10-28T13:33:03;10.00;;;7.43;;
28577;SDS011;15769;52.248;15.818;2022-10-28T13:38:08;12.70;;;8.63;;
28577;SDS011;15769;52.248;15.818;2022-10-28T13:43:18;15.30;;;11.27;;
28577;SDS011;15769;52.248;15.818;2022-10-28T13:48:30;11.07;;;7.85;;
28577;SDS011;15769;52.248;15.818;2022-10-28T13:53:37;18.40;;;11.45;;
28577;SDS011;15769;52.248;15.818;2022-10-28T13:58:48;25.13;;;12.85;;
28577;SDS011;15769;52.248;15.818;2022-10-28T14:03:55;20.92;;;12.25;;
28577;SDS011;15769;52.248;15.818;2022-10-28T14:08:57;30.17;;;17.33;;
28577;SDS011;15769;52.248;15.818;2022-10-28T14:14:01;39.42;;;20.25;;
28577;SDS011;15769;52.248;15.818;2022-10-28T14:24:11;30.30;;;15.20;;
28577;SDS011;15769;52.248;15.818;2022-10-28T14:29:21;23.50;;;12.15;;
28577;SDS011;15769;52.248;15.818;2022-10-28T14:34:28;16.77;;;8.50;;
28577;SDS011;15769;52.248;15.818;2022-10-28T14:52:38;13.88;;;11.05;;
28577;SDS011;15769;52.248;15.818;2022-10-28T14:57:42;28.70;;;15.90;;
28577;SDS011;15769;52.248;15.818;2022-10-28T15:03:37;33.70;;;18.63;;
28577;SDS011;15769;52.248;15.818;2022-10-28T15:08:41;32.70;;;19.15;;
28577;SDS011;15769;52.248;15.818;2022-10-28T15:13:46;41.17;;;22.50;;
28577;SDS011;15769;52.248;15.818;2022-10-28T15:18:51;92.97;;;47.72;;
28577;SDS011;15769;52.248;15.818;2022-10-28T15:24:00;63.38;;;38.10;;
28577;SDS011;15769;52.248;15.818;2022-10-28T15:29:32;41.83;;;27.38;;
28577;SDS011;15769;52.248;15.818;2022-10-28T15:34:35;31.95;;;21.00;;
28577;SDS011;15769;52.248;15.818;2022-10-28T15:39:37;30.57;;;19.93;;
28577;SDS011;15769;52.248;15.818;2022-10-28T15:44:40;23.27;;;17.85;;
28577;SDS011;15769;52.248;15.818;2022-10-28T15:49:42;20.27;;;14.47;;
28577;SDS011;15769;52.248;15.818;2022-10-28T15:54:53;21.70;;;14.38;;
28577;SDS011;15769;52.248;15.818;2022-10-28T16:00:10;21.40;;;15.10;;
28577;SDS011;15769;52.248;15.818;2022-10-28T16:10:43;25.60;;;16.85;;
28577;SDS011;15769;52.248;15.818;2022-10-28T16:15:50;22.67;;;16.27;;
28577;SDS011;15769;52.248;15.818;2022-10-28T16:20:56;26.05;;;17.17;;
28577;SDS011;15769;52.248;15.818;2022-10-28T16:26:00;36.70;;;24.10;;
28577;SDS011;15769;52.248;15.818;2022-10-28T16:31:12;44.08;;;28.75;;
28577;SDS011;15769;52.248;15.818;2022-10-28T16:36:17;59.70;;;35.67;;
28577;SDS011;15769;52.248;15.818;2022-10-28T16:41:19;58.80;;;36.03;;
28577;SDS011;15769;52.248;15.818;2022-10-28T16:46:23;47.30;;;30.52;;
28577;SDS011;15769;52.248;15.818;2022-10-28T16:51:25;32.42;;;21.80;;
28577;SDS011;15769;52.248;15.818;2022-10-28T16:56:27;25.50;;;16.40;;
28577;SDS011;15769;52.248;15.818;2022-10-28T17:01:30;21.60;;;14.07;;
28577;SDS011;15769;52.248;15.818;2022-10-28T17:06:32;22.15;;;16.00;;
28577;SDS011;15769;52.248;15.818;2022-10-28T17:11:35;37.47;;;20.10;;
28577;SDS011;15769;52.248;15.818;2022-10-28T17:16:37;58.03;;;30.57;;
28577;SDS011;15769;52.248;15.818;2022-10-28T17:21:44;53.42;;;28.58;;
28577;SDS011;15769;52.248;15.818;2022-10-28T17:26:46;39.47;;;24.50;;
28577;SDS011;15769;52.248;15.818;2022-10-28T17:31:50;42.35;;;22.08;;
28577;SDS011;15769;52.248;15.818;2022-10-28T17:36:52;29.98;;;18.55;;
28577;SDS011;15769;52.248;15.818;2022-10-28T17:41:54;22.50;;;15.90;;
28577;SDS011;15769;52.248;15.818;2022-10-28T17:46:57;23.65;;;16.17;;
28577;SDS011;15769;52.248;15.818;2022-10-28T17:52:01;34.05;;;24.63;;
28577;SDS011;15769;52.248;15.818;2022-10-28T17:57:17;38.33;;;27.83;;
28577;SDS011;15769;52.248;15.818;2022-10-28T18:02:20;39.92;;;25.90;;
28577;SDS011;15769;52.248;15.818;2022-10-28T18:07:24;46.22;;;28.77;;
28577;SDS011;15769;52.248;15.818;2022-10-28T18:12:27;49.63;;;30.00;;
28577;SDS011;15769;52.248;15.818;2022-10-28T18:17:30;58.17;;;33.40;;
28577;SDS011;15769;52.248;15.818;2022-10-28T18:22:59;57.45;;;34.17;;
28577;SDS011;15769;52.248;15.818;2022-10-28T18:28:10;53.00;;;31.95;;
28577;SDS011;15769;52.248;15.818;2022-10-28T18:33:33;46.05;;;29.95;;
28577;SDS011;15769;52.248;15.818;2022-10-28T18:38:58;47.78;;;30.00;;
28577;SDS011;15769;52.248;15.818;2022-10-28T18:44:02;45.83;;;29.70;;
28577;SDS011;15769;52.248;15.818;2022-10-28T18:50:15;53.37;;;33.17;;
28577;SDS011;15769;52.248;15.818;2022-10-28T18:55:51;44.80;;;29.15;;
28577;SDS011;15769;52.248;15.818;2022-10-28T19:01:05;42.80;;;28.20;;
28577;SDS011;15769;52.248;15.818;2022-10-28T19:07:11;38.28;;;25.45;;
28577;SDS011;15769;52.248;15.818;2022-10-28T19:12:13;37.60;;;21.33;;
28577;SDS011;15769;52.248;15.818;2022-10-28T19:17:16;33.50;;;20.93;;
28577;SDS011;15769;52.248;15.818;2022-10-28T19:22:18;32.30;;;19.73;;
28577;SDS011;15769;52.248;15.818;2022-10-28T19:27:32;30.95;;;20.67;;
28577;SDS011;15769;52.248;15.818;2022-10-28T19:32:36;34.45;;;19.50;;
28577;SDS011;15769;52.248;15.818;2022-10-28T19:37:39;33.08;;;19.42;;
28577;SDS011;15769;52.248;15.818;2022-10-28T19:42:42;26.50;;;18.67;;
28577;SDS011;15769;52.248;15.818;2022-10-28T19:47:44;29.98;;;19.25;;
28577;SDS011;15769;52.248;15.818;2022-10-28T19:52:46;30.77;;;19.50;;
28577;SDS011;15769;52.248;15.818;2022-10-28T19:57:49;26.45;;;17.83;;
28577;SDS011;15769;52.248;15.818;2022-10-28T20:02:54;30.02;;;19.10;;
28577;SDS011;15769;52.248;15.818;2022-10-28T20:07:56;28.45;;;17.98;;
28577;SDS011;15769;52.248;15.818;2022-10-28T20:12:58;21.87;;;13.50;;
28577;SDS011;15769;52.248;15.818;2022-10-28T20:18:00;20.65;;;13.82;;
28577;SDS011;15769;52.248;15.818;2022-10-28T20:23:03;22.55;;;13.00;;
28577;SDS011;15769;52.248;15.818;2022-10-28T20:28:05;24.70;;;14.75;;
28577;SDS011;15769;52.248;15.818;2022-10-28T20:33:11;20.30;;;14.00;;
28577;SDS011;15769;52.248;15.818;2022-10-28T20:38:13;20.00;;;13.57;;
28577;SDS011;15769;52.248;15.818;2022-10-28T20:43:16;19.45;;;14.77;;
28577;SDS011;15769;52.248;15.818;2022-10-28T20:48:21;20.88;;;14.50;;
28577;SDS011;15769;52.248;15.818;2022-10-28T20:53:24;23.25;;;15.45;;
28577;SDS011;15769;52.248;15.818;2022-10-28T20:58:28;26.13;;;15.38;;
28577;SDS011;15769;52.248;15.818;2022-10-28T21:03:31;29.90;;;17.85;;
28577;SDS011;15769;52.248;15.818;2022-10-28T21:08:34;25.10;;;15.88;;
28577;SDS011;15769;52.248;15.818;2022-10-28T21:13:36;22.58;;;12.55;;
28577;SDS011;15769;52.248;15.818;2022-10-28T21:18:39;12.80;;;8.40;;
28577;SDS011;15769;52.248;15.818;2022-10-28T21:23:42;12.27;;;7.35;;
28577;SDS011;15769;52.248;15.818;2022-10-28T21:28:47;10.82;;;7.93;;
28577;SDS011;15769;52.248;15.818;2022-10-28T21:33:59;11.25;;;7.15;;
28577;SDS011;15769;52.248;15.818;2022-10-28T21:39:06;9.95;;;6.72;;
28577;SDS011;15769;52.248;15.818;2022-10-28T21:44:16;8.15;;;6.00;;
28577;SDS011;15769;52.248;15.818;2022-10-28T21:49:18;7.72;;;5.53;;
28577;SDS011;15769;52.248;15.818;2022-10-28T21:54:20;7.43;;;5.55;;
28577;SDS011;15769;52.248;15.818;2022-10-28T21:59:23;7.77;;;6.23;;
28577;SDS011;15769;52.248;15.818;2022-10-28T22:04:25;11.87;;;5.90;;
28577;SDS011;15769;52.248;15.818;2022-10-28T22:09:28;8.40;;;6.22;;
28577;SDS011;15769;52.248;15.818;2022-10-28T22:14:35;8.15;;;5.82;;
28577;SDS011;15769;52.248;15.818;2022-10-28T22:19:37;8.55;;;5.78;;
28577;SDS011;15769;52.248;15.818;2022-10-28T22:24:40;10.07;;;7.00;;
28577;SDS011;15769;52.248;15.818;2022-10-28T22:29:43;10.82;;;6.68;;
28577;SDS011;15769;52.248;15.818;2022-10-28T22:34:45;8.27;;;5.60;;
28577;SDS011;15769;52.248;15.818;2022-10-28T22:39:48;8.93;;;6.50;;
28577;SDS011;15769;52.248;15.818;2022-10-28T22:44:50;7.17;;;5.10;;
28577;SDS011;15769;52.248;15.818;2022-10-28T22:49:52;7.00;;;5.20;;
28577;SDS011;15769;52.248;15.818;2022-10-28T22:54:54;5.82;;;4.65;;
28577;SDS011;15769;52.248;15.818;2022-10-28T22:59:57;8.20;;;4.97;;
28577;SDS011;15769;52.248;15.818;2022-10-28T23:04:59;10.77;;;6.03;;
28577;SDS011;15769;52.248;15.818;2022-10-28T23:10:01;8.63;;;6.03;;
28577;SDS011;15769;52.248;15.818;2022-10-28T23:15:04;8.85;;;5.97;;
28577;SDS011;15769;52.248;15.818;2022-10-28T23:20:06;10.57;;;6.57;;
28577;SDS011;15769;52.248;15.818;2022-10-28T23:25:09;8.93;;;5.25;;
28577;SDS011;15769;52.248;15.818;2022-10-28T23:30:11;12.80;;;7.20;;
28577;SDS011;15769;52.248;15.818;2022-10-28T23:35:14;9.98;;;5.80;;
28577;SDS011;15769;52.248;15.818;2022-10-28T23:40:16;12.82;;;5.63;;
28577;SDS011;15769;52.248;15.818;2022-10-28T23:45:18;13.90;;;6.57;;
28577;SDS011;15769;52.248;15.818;2022-10-28T23:50:20;10.20;;;6.00;;
28577;SDS011;15769;52.248;15.818;2022-10-28T23:55:25;8.00;;;5.70;;
